Pagrindinis puslapis
METAR-TAF:

METAR-TAF

Oro uostai :

Giumri, Armėnija

platuma: 40-45-01N, ilguma: 043-51-33E, Aukštis: 1524 m

Dabartinis oras

Ataskaita buvo paskelbta 35 minutes, ne 23:30 UTC
Ramus vėjas
Temperatūra 8°C
Drėgmė 81%
Slėgis 1022 hPa
Matomumas 10 km arba daugiau

METAR: UDSG 182330Z 00000KT 9999 NSC 08/05 Q1022 R02/CLRD70 NOSIG

Laikas: 04:05 (00:05 UTC)

Prognozė

Ataskaita buvo paskelbta 1 valandą ir 1 minutes, ne 23:04 UTC
Prognozė galioja nuo 19 metu 00 UTC su 19 metu 24 UTC
Vėjas 8 kt iš Vakarų/Pietvakarių
Matomumas 10 km arba daugiau

TAF: UDSG 182304Z 1900/1924 24008KT 9999 NSC

Orai ataskaitas ir orų prognozės (METAR, TAF).

turimą stotys yra geltonos ir raudonos taškus žemėlapyje.

Perkelti pele per norėdami pamatyti stoties vardą.

Tada spustelėkite, norėdami matyti oro stebėjimo ir prognozės.

Norėdami pakeisti žemėlapį: spustelėkite ant žalios mygtukų su juodo kryžiaus žemyn,; žalią mygtuką su brūkšneliu, jei norite nutolinti; arba žalių rodyklių gretimoms žemėlapius.


METAR-TAF: